sensor_id;sensor_type;location;lat;lon;timestamp;P1;durP1;ratioP1;P2;durP2;ratioP2
19543;SDS011;9917;51.256;7.152;2022-09-03T00:01:58;4.40;;;0.98;;
19543;SDS011;9917;51.256;7.152;2022-09-03T00:04:31;3.17;;;0.90;;
19543;SDS011;9917;51.256;7.152;2022-09-03T00:07:03;2.03;;;0.98;;
19543;SDS011;9917;51.256;7.152;2022-09-03T00:09:33;1.80;;;1.00;;
19543;SDS011;9917;51.256;7.152;2022-09-03T00:12:05;1.90;;;0.90;;
19543;SDS011;9917;51.256;7.152;2022-09-03T00:14:36;1.70;;;0.80;;
19543;SDS011;9917;51.256;7.152;2022-09-03T00:17:08;5.13;;;1.10;;
19543;SDS011;9917;51.256;7.152;2022-09-03T00:19:40;1.52;;;0.75;;
19543;SDS011;9917;51.256;7.152;2022-09-03T00:22:11;4.25;;;1.25;;
19543;SDS011;9917;51.256;7.152;2022-09-03T00:24:40;0.90;;;0.60;;
19543;SDS011;9917;51.256;7.152;2022-09-03T00:27:10;2.22;;;0.90;;
19543;SDS011;9917;51.256;7.152;2022-09-03T00:29:40;1.13;;;0.80;;
19543;SDS011;9917;51.256;7.152;2022-09-03T00:32:12;2.08;;;0.90;;
19543;SDS011;9917;51.256;7.152;2022-09-03T00:34:44;4.57;;;0.90;;
19543;SDS011;9917;51.256;7.152;2022-09-03T00:37:13;2.63;;;0.98;;
19543;SDS011;9917;51.256;7.152;2022-09-03T00:39:39;1.52;;;0.75;;
19543;SDS011;9917;51.256;7.152;2022-09-03T00:42:12;2.60;;;1.10;;
19543;SDS011;9917;51.256;7.152;2022-09-03T00:44:57;1.77;;;0.77;;
19543;SDS011;9917;51.256;7.152;2022-09-03T00:47:30;2.13;;;0.90;;
19543;SDS011;9917;51.256;7.152;2022-09-03T00:50:08;1.80;;;1.13;;
19543;SDS011;9917;51.256;7.152;2022-09-03T00:52:48;1.75;;;1.10;;
19543;SDS011;9917;51.256;7.152;2022-09-03T00:55:25;7.05;;;1.15;;
19543;SDS011;9917;51.256;7.152;2022-09-03T00:58:05;1.80;;;0.88;;
19543;SDS011;9917;51.256;7.152;2022-09-03T01:00:40;2.22;;;1.00;;
19543;SDS011;9917;51.256;7.152;2022-09-03T01:03:08;1.70;;;0.73;;
19543;SDS011;9917;51.256;7.152;2022-09-03T01:05:44;2.95;;;0.90;;
19543;SDS011;9917;51.256;7.152;2022-09-03T01:08:26;2.10;;;1.10;;
19543;SDS011;9917;51.256;7.152;2022-09-03T01:11:02;1.52;;;0.90;;
19543;SDS011;9917;51.256;7.152;2022-09-03T01:13:37;1.35;;;0.80;;
19543;SDS011;9917;51.256;7.152;2022-09-03T01:16:08;2.55;;;0.90;;
19543;SDS011;9917;51.256;7.152;2022-09-03T01:18:46;2.25;;;0.90;;
19543;SDS011;9917;51.256;7.152;2022-09-03T01:24:26;1.60;;;0.82;;
19543;SDS011;9917;51.256;7.152;2022-09-03T01:27:08;1.63;;;0.70;;
19543;SDS011;9917;51.256;7.152;2022-09-03T01:29:48;1.10;;;0.90;;
19543;SDS011;9917;51.256;7.152;2022-09-03T01:32:21;4.72;;;0.80;;
19543;SDS011;9917;51.256;7.152;2022-09-03T01:34:51;2.58;;;0.82;;
19543;SDS011;9917;51.256;7.152;2022-09-03T01:37:23;4.57;;;0.82;;
19543;SDS011;9917;51.256;7.152;2022-09-03T01:40:01;2.25;;;0.98;;
19543;SDS011;9917;51.256;7.152;2022-09-03T01:42:38;1.83;;;0.80;;
19543;SDS011;9917;51.256;7.152;2022-09-03T01:45:30;4.07;;;0.88;;
19543;SDS011;9917;51.256;7.152;2022-09-03T01:48:13;2.15;;;1.00;;
19543;SDS011;9917;51.256;7.152;2022-09-03T01:50:55;2.10;;;0.95;;
19543;SDS011;9917;51.256;7.152;2022-09-03T01:53:31;1.90;;;0.95;;
19543;SDS011;9917;51.256;7.152;2022-09-03T01:56:18;4.10;;;0.85;;
19543;SDS011;9917;51.256;7.152;2022-09-03T01:58:53;2.03;;;0.80;;
19543;SDS011;9917;51.256;7.152;2022-09-03T02:01:27;1.63;;;0.80;;
19543;SDS011;9917;51.256;7.152;2022-09-03T02:03:56;1.80;;;0.75;;
19543;SDS011;9917;51.256;7.152;2022-09-03T02:06:24;2.92;;;1.00;;
19543;SDS011;9917;51.256;7.152;2022-09-03T02:08:50;1.30;;;0.80;;
19543;SDS011;9917;51.256;7.152;2022-09-03T02:11:16;1.17;;;0.80;;
19543;SDS011;9917;51.256;7.152;2022-09-03T02:13:43;6.05;;;0.90;;
19543;SDS011;9917;51.256;7.152;2022-09-03T02:16:12;1.15;;;0.80;;
19543;SDS011;9917;51.256;7.152;2022-09-03T02:18:42;2.25;;;0.73;;
19543;SDS011;9917;51.256;7.152;2022-09-03T02:21:12;2.00;;;0.77;;
19543;SDS011;9917;51.256;7.152;2022-09-03T02:23:40;1.10;;;0.70;;
19543;SDS011;9917;51.256;7.152;2022-09-03T02:26:07;1.98;;;0.80;;
19543;SDS011;9917;51.256;7.152;2022-09-03T02:28:35;0.80;;;0.60;;
19543;SDS011;9917;51.256;7.152;2022-09-03T02:31:01;1.63;;;0.73;;
19543;SDS011;9917;51.256;7.152;2022-09-03T02:33:27;3.05;;;0.80;;
19543;SDS011;9917;51.256;7.152;2022-09-03T02:35:56;1.02;;;0.70;;
19543;SDS011;9917;51.256;7.152;2022-09-03T02:38:22;1.13;;;0.60;;
19543;SDS011;9917;51.256;7.152;2022-09-03T02:40:49;1.10;;;0.80;;
19543;SDS011;9917;51.256;7.152;2022-09-03T02:43:16;1.95;;;0.70;;
19543;SDS011;9917;51.256;7.152;2022-09-03T02:45:46;2.50;;;1.00;;
19543;SDS011;9917;51.256;7.152;2022-09-03T02:48:15;1.20;;;0.70;;
19543;SDS011;9917;51.256;7.152;2022-09-03T02:50:46;4.05;;;0.80;;
19543;SDS011;9917;51.256;7.152;2022-09-03T02:53:13;1.80;;;0.80;;
19543;SDS011;9917;51.256;7.152;2022-09-03T02:55:40;2.50;;;0.63;;
19543;SDS011;9917;51.256;7.152;2022-09-03T02:58:06;1.02;;;0.70;;
19543;SDS011;9917;51.256;7.152;2022-09-03T03:00:32;2.03;;;0.93;;
19543;SDS011;9917;51.256;7.152;2022-09-03T03:02:57;2.45;;;0.80;;
19543;SDS011;9917;51.256;7.152;2022-09-03T03:05:25;1.45;;;0.77;;
19543;SDS011;9917;51.256;7.152;2022-09-03T03:07:56;1.40;;;0.70;;
19543;SDS011;9917;51.256;7.152;2022-09-03T03:10:23;1.77;;;0.82;;
19543;SDS011;9917;51.256;7.152;2022-09-03T03:12:49;1.10;;;0.82;;
19543;SDS011;9917;51.256;7.152;2022-09-03T03:15:14;2.47;;;0.80;;
19543;SDS011;9917;51.256;7.152;2022-09-03T03:17:40;1.75;;;0.80;;
19543;SDS011;9917;51.256;7.152;2022-09-03T03:20:07;2.35;;;0.75;;
19543;SDS011;9917;51.256;7.152;2022-09-03T03:22:33;1.52;;;0.80;;
19543;SDS011;9917;51.256;7.152;2022-09-03T03:24:59;2.83;;;1.00;;
19543;SDS011;9917;51.256;7.152;2022-09-03T03:27:26;1.35;;;0.70;;
19543;SDS011;9917;51.256;7.152;2022-09-03T03:29:52;1.60;;;0.73;;
19543;SDS011;9917;51.256;7.152;2022-09-03T03:32:18;1.02;;;0.70;;
19543;SDS011;9917;51.256;7.152;2022-09-03T03:34:44;1.75;;;0.90;;
19543;SDS011;9917;51.256;7.152;2022-09-03T03:37:10;2.20;;;0.80;;
19543;SDS011;9917;51.256;7.152;2022-09-03T03:39:35;2.92;;;0.90;;
19543;SDS011;9917;51.256;7.152;2022-09-03T03:42:01;1.63;;;0.90;;
19543;SDS011;9917;51.256;7.152;2022-09-03T03:44:28;2.65;;;0.90;;
19543;SDS011;9917;51.256;7.152;2022-09-03T03:46:54;1.38;;;0.93;;
19543;SDS011;9917;51.256;7.152;2022-09-03T03:49:20;3.05;;;0.93;;
19543;SDS011;9917;51.256;7.152;2022-09-03T03:51:46;2.03;;;0.70;;
19543;SDS011;9917;51.256;7.152;2022-09-03T03:54:12;3.78;;;0.70;;
19543;SDS011;9917;51.256;7.152;2022-09-03T03:56:38;1.08;;;0.85;;
19543;SDS011;9917;51.256;7.152;2022-09-03T03:59:04;7.55;;;0.70;;
19543;SDS011;9917;51.256;7.152;2022-09-03T04:01:31;2.50;;;0.90;;
19543;SDS011;9917;51.256;7.152;2022-09-03T04:03:58;4.35;;;0.90;;
19543;SDS011;9917;51.256;7.152;2022-09-03T04:06:24;2.65;;;1.05;;
19543;SDS011;9917;51.256;7.152;2022-09-03T04:08:50;1.27;;;0.60;;
19543;SDS011;9917;51.256;7.152;2022-09-03T04:11:16;1.65;;;1.35;;
19543;SDS011;9917;51.256;7.152;2022-09-03T04:13:44;3.22;;;0.75;;
19543;SDS011;9917;51.256;7.152;2022-09-03T04:16:11;0.77;;;0.60;;
19543;SDS011;9917;51.256;7.152;2022-09-03T04:18:38;1.88;;;0.80;;
19543;SDS011;9917;51.256;7.152;2022-09-03T04:21:05;2.20;;;1.00;;
19543;SDS011;9917;51.256;7.152;2022-09-03T04:23:32;1.58;;;0.82;;
19543;SDS011;9917;51.256;7.152;2022-09-03T04:25:59;1.33;;;0.80;;
19543;SDS011;9917;51.256;7.152;2022-09-03T04:28:25;2.78;;;0.90;;
19543;SDS011;9917;51.256;7.152;2022-09-03T04:30:52;2.35;;;0.60;;
19543;SDS011;9917;51.256;7.152;2022-09-03T04:33:18;1.92;;;0.80;;
19543;SDS011;9917;51.256;7.152;2022-09-03T04:35:45;2.35;;;0.93;;
19543;SDS011;9917;51.256;7.152;2022-09-03T04:38:11;2.60;;;1.05;;
19543;SDS011;9917;51.256;7.152;2022-09-03T04:40:37;1.80;;;0.85;;
19543;SDS011;9917;51.256;7.152;2022-09-03T04:43:03;2.03;;;0.90;;
19543;SDS011;9917;51.256;7.152;2022-09-03T04:45:29;3.22;;;1.08;;
19543;SDS011;9917;51.256;7.152;2022-09-03T04:47:56;1.40;;;0.90;;
19543;SDS011;9917;51.256;7.152;2022-09-03T04:50:22;1.30;;;0.93;;
19543;SDS011;9917;51.256;7.152;2022-09-03T04:52:49;1.55;;;0.93;;
19543;SDS011;9917;51.256;7.152;2022-09-03T04:55:15;1.42;;;0.90;;
19543;SDS011;9917;51.256;7.152;2022-09-03T04:57:41;1.48;;;1.00;;
19543;SDS011;9917;51.256;7.152;2022-09-03T05:00:07;1.50;;;0.80;;
19543;SDS011;9917;51.256;7.152;2022-09-03T05:02:34;4.53;;;1.05;;
19543;SDS011;9917;51.256;7.152;2022-09-03T05:04:59;2.78;;;1.50;;
19543;SDS011;9917;51.256;7.152;2022-09-03T05:07:25;9.15;;;3.88;;
19543;SDS011;9917;51.256;7.152;2022-09-03T05:09:53;3.85;;;1.88;;
19543;SDS011;9917;51.256;7.152;2022-09-03T05:12:18;2.08;;;1.10;;
19543;SDS011;9917;51.256;7.152;2022-09-03T05:14:44;5.38;;;2.20;;
19543;SDS011;9917;51.256;7.152;2022-09-03T05:17:10;10.63;;;4.35;;
19543;SDS011;9917;51.256;7.152;2022-09-03T05:19:36;7.32;;;3.17;;
19543;SDS011;9917;51.256;7.152;2022-09-03T05:22:02;5.88;;;3.40;;
19543;SDS011;9917;51.256;7.152;2022-09-03T05:24:28;1.50;;;1.08;;
19543;SDS011;9917;51.256;7.152;2022-09-03T05:26:56;9.68;;;5.60;;
19543;SDS011;9917;51.256;7.152;2022-09-03T05:29:21;8.68;;;4.93;;
19543;SDS011;9917;51.256;7.152;2022-09-03T05:31:47;6.07;;;1.80;;
19543;SDS011;9917;51.256;7.152;2022-09-03T05:34:13;4.10;;;2.28;;
19543;SDS011;9917;51.256;7.152;2022-09-03T05:36:39;7.32;;;3.10;;
19543;SDS011;9917;51.256;7.152;2022-09-03T05:39:05;8.77;;;4.20;;
19543;SDS011;9917;51.256;7.152;2022-09-03T05:41:31;4.85;;;2.85;;
19543;SDS011;9917;51.256;7.152;2022-09-03T05:43:59;5.70;;;2.70;;
19543;SDS011;9917;51.256;7.152;2022-09-03T05:46:25;2.35;;;1.48;;
19543;SDS011;9917;51.256;7.152;2022-09-03T05:48:52;3.60;;;2.22;;
19543;SDS011;9917;51.256;7.152;2022-09-03T05:51:18;3.00;;;1.67;;
19543;SDS011;9917;51.256;7.152;2022-09-03T05:53:44;5.50;;;2.20;;
19543;SDS011;9917;51.256;7.152;2022-09-03T05:56:12;2.00;;;0.80;;
19543;SDS011;9917;51.256;7.152;2022-09-03T05:58:39;1.90;;;0.90;;
19543;SDS011;9917;51.256;7.152;2022-09-03T06:01:10;1.58;;;0.98;;
19543;SDS011;9917;51.256;7.152;2022-09-03T06:03:36;2.83;;;1.05;;
19543;SDS011;9917;51.256;7.152;2022-09-03T06:06:02;7.72;;;1.55;;
19543;SDS011;9917;51.256;7.152;2022-09-03T06:08:28;4.07;;;1.40;;
19543;SDS011;9917;51.256;7.152;2022-09-03T06:10:56;2.00;;;1.23;;
19543;SDS011;9917;51.256;7.152;2022-09-03T06:13:22;2.38;;;1.13;;
19543;SDS011;9917;51.256;7.152;2022-09-03T06:15:48;4.35;;;1.27;;
19543;SDS011;9917;51.256;7.152;2022-09-03T06:18:15;2.30;;;1.02;;
19543;SDS011;9917;51.256;7.152;2022-09-03T06:20:41;1.80;;;0.88;;
19543;SDS011;9917;51.256;7.152;2022-09-03T06:23:07;1.25;;;0.70;;
19543;SDS011;9917;51.256;7.152;2022-09-03T06:25:33;3.38;;;1.02;;
19543;SDS011;9917;51.256;7.152;2022-09-03T06:27:59;1.98;;;0.90;;
19543;SDS011;9917;51.256;7.152;2022-09-03T06:30:25;2.92;;;1.58;;
19543;SDS011;9917;51.256;7.152;2022-09-03T06:32:51;2.03;;;1.10;;
19543;SDS011;9917;51.256;7.152;2022-09-03T06:35:18;4.32;;;1.92;;
19543;SDS011;9917;51.256;7.152;2022-09-03T06:37:44;2.17;;;1.00;;
19543;SDS011;9917;51.256;7.152;2022-09-03T06:40:10;10.23;;;4.28;;
19543;SDS011;9917;51.256;7.152;2022-09-03T06:42:36;2.65;;;1.00;;
19543;SDS011;9917;51.256;7.152;2022-09-03T06:45:02;1.92;;;1.00;;
19543;SDS011;9917;51.256;7.152;2022-09-03T06:47:28;2.45;;;0.75;;
19543;SDS011;9917;51.256;7.152;2022-09-03T06:49:54;2.95;;;1.33;;
19543;SDS011;9917;51.256;7.152;2022-09-03T06:52:21;4.88;;;1.95;;
19543;SDS011;9917;51.256;7.152;2022-09-03T06:54:47;3.95;;;1.45;;
19543;SDS011;9917;51.256;7.152;2022-09-03T06:57:13;1.98;;;1.00;;
19543;SDS011;9917;51.256;7.152;2022-09-03T06:59:39;4.38;;;1.08;;
19543;SDS011;9917;51.256;7.152;2022-09-03T07:02:05;4.40;;;1.23;;
19543;SDS011;9917;51.256;7.152;2022-09-03T07:04:31;3.15;;;1.02;;
19543;SDS011;9917;51.256;7.152;2022-09-03T07:06:57;3.67;;;0.70;;
19543;SDS011;9917;51.256;7.152;2022-09-03T07:09:24;4.68;;;1.05;;
19543;SDS011;9917;51.256;7.152;2022-09-03T07:11:50;2.75;;;0.85;;
19543;SDS011;9917;51.256;7.152;2022-09-03T07:14:16;2.42;;;0.95;;
19543;SDS011;9917;51.256;7.152;2022-09-03T07:16:42;4.53;;;1.85;;
19543;SDS011;9917;51.256;7.152;2022-09-03T07:19:09;4.07;;;2.13;;
19543;SDS011;9917;51.256;7.152;2022-09-03T07:21:35;3.80;;;0.90;;
19543;SDS011;9917;51.256;7.152;2022-09-03T07:24:02;2.05;;;0.90;;
19543;SDS011;9917;51.256;7.152;2022-09-03T07:26:30;4.18;;;0.70;;
19543;SDS011;9917;51.256;7.152;2022-09-03T07:28:57;3.05;;;0.80;;
19543;SDS011;9917;51.256;7.152;2022-09-03T07:31:24;3.50;;;0.65;;
19543;SDS011;9917;51.256;7.152;2022-09-03T07:33:52;6.60;;;0.90;;
19543;SDS011;9917;51.256;7.152;2022-09-03T07:36:18;3.65;;;1.38;;
19543;SDS011;9917;51.256;7.152;2022-09-03T07:38:44;4.18;;;1.52;;
19543;SDS011;9917;51.256;7.152;2022-09-03T07:41:10;8.32;;;1.58;;
19543;SDS011;9917;51.256;7.152;2022-09-03T07:43:39;1.27;;;0.90;;
19543;SDS011;9917;51.256;7.152;2022-09-03T07:46:06;5.68;;;1.08;;
19543;SDS011;9917;51.256;7.152;2022-09-03T07:48:32;1.48;;;0.88;;
19543;SDS011;9917;51.256;7.152;2022-09-03T07:50:58;4.60;;;0.70;;
19543;SDS011;9917;51.256;7.152;2022-09-03T07:53:24;8.73;;;0.77;;
19543;SDS011;9917;51.256;7.152;2022-09-03T07:55:50;1.60;;;0.70;;
19543;SDS011;9917;51.256;7.152;2022-09-03T07:58:16;3.90;;;0.70;;
19543;SDS011;9917;51.256;7.152;2022-09-03T08:00:43;3.50;;;0.70;;
19543;SDS011;9917;51.256;7.152;2022-09-03T08:03:09;2.72;;;0.60;;
19543;SDS011;9917;51.256;7.152;2022-09-03T08:05:35;2.83;;;0.90;;
19543;SDS011;9917;51.256;7.152;2022-09-03T08:08:01;6.15;;;0.98;;
19543;SDS011;9917;51.256;7.152;2022-09-03T08:10:28;1.58;;;0.80;;
19543;SDS011;9917;51.256;7.152;2022-09-03T08:12:54;1.55;;;0.80;;
19543;SDS011;9917;51.256;7.152;2022-09-03T08:15:20;1.80;;;0.63;;
19543;SDS011;9917;51.256;7.152;2022-09-03T08:17:47;3.25;;;1.10;;
19543;SDS011;9917;51.256;7.152;2022-09-03T08:20:13;1.63;;;0.80;;
19543;SDS011;9917;51.256;7.152;2022-09-03T08:22:39;4.18;;;0.90;;
19543;SDS011;9917;51.256;7.152;2022-09-03T08:25:05;1.00;;;0.60;;
19543;SDS011;9917;51.256;7.152;2022-09-03T08:27:31;0.80;;;0.50;;
19543;SDS011;9917;51.256;7.152;2022-09-03T08:29:57;1.63;;;0.60;;
19543;SDS011;9917;51.256;7.152;2022-09-03T08:32:23;2.38;;;0.82;;
19543;SDS011;9917;51.256;7.152;2022-09-03T08:34:50;1.77;;;1.02;;
19543;SDS011;9917;51.256;7.152;2022-09-03T08:37:16;2.10;;;0.50;;
19543;SDS011;9917;51.256;7.152;2022-09-03T08:39:42;1.27;;;0.40;;
19543;SDS011;9917;51.256;7.152;2022-09-03T08:42:15;1.83;;;0.40;;
19543;SDS011;9917;51.256;7.152;2022-09-03T08:44:57;5.18;;;0.68;;
19543;SDS011;9917;51.256;7.152;2022-09-03T08:47:25;1.50;;;0.60;;
19543;SDS011;9917;51.256;7.152;2022-09-03T08:49:59;3.78;;;0.43;;
19543;SDS011;9917;51.256;7.152;2022-09-03T08:52:33;2.08;;;0.68;;
19543;SDS011;9917;51.256;7.152;2022-09-03T08:55:11;1.35;;;0.95;;
19543;SDS011;9917;51.256;7.152;2022-09-03T08:57:42;6.55;;;2.25;;
19543;SDS011;9917;51.256;7.152;2022-09-03T09:00:11;2.38;;;0.70;;
19543;SDS011;9917;51.256;7.152;2022-09-03T09:02:39;1.92;;;0.82;;
19543;SDS011;9917;51.256;7.152;2022-09-03T09:05:17;1.35;;;0.52;;
19543;SDS011;9917;51.256;7.152;2022-09-03T09:07:49;1.65;;;0.70;;
19543;SDS011;9917;51.256;7.152;2022-09-03T09:10:25;5.30;;;0.80;;
19543;SDS011;9917;51.256;7.152;2022-09-03T09:13:01;3.20;;;0.70;;
19543;SDS011;9917;51.256;7.152;2022-09-03T09:15:37;2.65;;;0.60;;
19543;SDS011;9917;51.256;7.152;2022-09-03T09:18:12;2.22;;;0.63;;
19543;SDS011;9917;51.256;7.152;2022-09-03T09:20:46;1.63;;;0.70;;
19543;SDS011;9917;51.256;7.152;2022-09-03T09:23:14;2.25;;;0.93;;
19543;SDS011;9917;51.256;7.152;2022-09-03T09:25:46;3.00;;;0.70;;
19543;SDS011;9917;51.256;7.152;2022-09-03T09:28:16;2.20;;;0.50;;
19543;SDS011;9917;51.256;7.152;2022-09-03T09:30:43;1.85;;;0.80;;
19543;SDS011;9917;51.256;7.152;2022-09-03T09:33:11;1.35;;;0.70;;
19543;SDS011;9917;51.256;7.152;2022-09-03T09:35:37;1.83;;;0.70;;
19543;SDS011;9917;51.256;7.152;2022-09-03T09:38:04;2.40;;;0.60;;
19543;SDS011;9917;51.256;7.152;2022-09-03T09:40:30;1.00;;;0.70;;
19543;SDS011;9917;51.256;7.152;2022-09-03T09:43:07;7.18;;;1.20;;
19543;SDS011;9917;51.256;7.152;2022-09-03T09:45:35;4.75;;;0.80;;
19543;SDS011;9917;51.256;7.152;2022-09-03T09:48:01;4.03;;;0.80;;
19543;SDS011;9917;51.256;7.152;2022-09-03T09:50:41;4.43;;;1.00;;
19543;SDS011;9917;51.256;7.152;2022-09-03T09:53:09;2.63;;;0.65;;
19543;SDS011;9917;51.256;7.152;2022-09-03T09:55:37;4.05;;;0.70;;
19543;SDS011;9917;51.256;7.152;2022-09-03T09:58:13;2.75;;;0.88;;
19543;SDS011;9917;51.256;7.152;2022-09-03T10:00:38;2.15;;;0.65;;
19543;SDS011;9917;51.256;7.152;2022-09-03T10:03:06;1.67;;;1.00;;
19543;SDS011;9917;51.256;7.152;2022-09-03T10:05:34;2.67;;;0.65;;
19543;SDS011;9917;51.256;7.152;2022-09-03T10:08:01;4.90;;;0.80;;
19543;SDS011;9917;51.256;7.152;2022-09-03T10:10:31;1.30;;;0.73;;
19543;SDS011;9917;51.256;7.152;2022-09-03T10:12:59;2.78;;;0.88;;
19543;SDS011;9917;51.256;7.152;2022-09-03T10:15:31;1.70;;;0.70;;
19543;SDS011;9917;51.256;7.152;2022-09-03T10:18:02;1.80;;;0.80;;
19543;SDS011;9917;51.256;7.152;2022-09-03T10:20:34;2.35;;;0.70;;
19543;SDS011;9917;51.256;7.152;2022-09-03T10:23:06;2.45;;;0.80;;
19543;SDS011;9917;51.256;7.152;2022-09-03T10:25:38;2.08;;;1.00;;
19543;SDS011;9917;51.256;7.152;2022-09-03T10:28:08;2.80;;;0.80;;
19543;SDS011;9917;51.256;7.152;2022-09-03T10:30:38;3.38;;;0.60;;
19543;SDS011;9917;51.256;7.152;2022-09-03T10:33:14;3.92;;;1.00;;
19543;SDS011;9917;51.256;7.152;2022-09-03T10:35:49;1.85;;;0.73;;
19543;SDS011;9917;51.256;7.152;2022-09-03T10:38:23;1.75;;;0.98;;
19543;SDS011;9917;51.256;7.152;2022-09-03T10:40:56;2.55;;;0.90;;
19543;SDS011;9917;51.256;7.152;2022-09-03T10:43:41;1.63;;;0.70;;
19543;SDS011;9917;51.256;7.152;2022-09-03T10:46:18;1.25;;;0.63;;
19543;SDS011;9917;51.256;7.152;2022-09-03T10:49:12;2.75;;;0.90;;
19543;SDS011;9917;51.256;7.152;2022-09-03T10:51:53;1.50;;;0.93;;
19543;SDS011;9917;51.256;7.152;2022-09-03T10:54:30;7.22;;;1.30;;
19543;SDS011;9917;51.256;7.152;2022-09-03T10:57:06;2.35;;;1.00;;
19543;SDS011;9917;51.256;7.152;2022-09-03T10:59:44;2.70;;;0.70;;
19543;SDS011;9917;51.256;7.152;2022-09-03T11:02:32;1.30;;;0.60;;
19543;SDS011;9917;51.256;7.152;2022-09-03T11:05:17;4.97;;;1.73;;
19543;SDS011;9917;51.256;7.152;2022-09-03T11:07:47;1.85;;;0.85;;
19543;SDS011;9917;51.256;7.152;2022-09-03T11:10:17;3.33;;;0.85;;
19543;SDS011;9917;51.256;7.152;2022-09-03T11:12:47;1.75;;;0.70;;
19543;SDS011;9917;51.256;7.152;2022-09-03T11:15:22;1.27;;;0.80;;
19543;SDS011;9917;51.256;7.152;2022-09-03T11:17:51;3.20;;;1.20;;
19543;SDS011;9917;51.256;7.152;2022-09-03T11:20:24;3.00;;;1.10;;
19543;SDS011;9917;51.256;7.152;2022-09-03T11:22:51;1.70;;;0.80;;
19543;SDS011;9917;51.256;7.152;2022-09-03T11:25:20;1.67;;;0.75;;
19543;SDS011;9917;51.256;7.152;2022-09-03T11:27:53;1.85;;;1.20;;
19543;SDS011;9917;51.256;7.152;2022-09-03T11:30:28;3.17;;;1.13;;
19543;SDS011;9917;51.256;7.152;2022-09-03T11:33:04;3.30;;;1.20;;
19543;SDS011;9917;51.256;7.152;2022-09-03T11:35:36;2.17;;;1.27;;
19543;SDS011;9917;51.256;7.152;2022-09-03T11:38:04;1.33;;;0.90;;
19543;SDS011;9917;51.256;7.152;2022-09-03T11:40:57;2.67;;;1.00;;
19543;SDS011;9917;51.256;7.152;2022-09-03T11:43:30;1.65;;;1.00;;
19543;SDS011;9917;51.256;7.152;2022-09-03T11:46:01;2.58;;;1.00;;
19543;SDS011;9917;51.256;7.152;2022-09-03T11:48:33;2.40;;;0.80;;
19543;SDS011;9917;51.256;7.152;2022-09-03T11:51:02;2.67;;;1.30;;
19543;SDS011;9917;51.256;7.152;2022-09-03T11:53:32;1.63;;;1.00;;
19543;SDS011;9917;51.256;7.152;2022-09-03T11:55:59;3.55;;;1.20;;
19543;SDS011;9917;51.256;7.152;2022-09-03T11:58:38;1.55;;;0.90;;
19543;SDS011;9917;51.256;7.152;2022-09-03T12:01:07;3.53;;;1.23;;
19543;SDS011;9917;51.256;7.152;2022-09-03T12:03:36;3.03;;;0.90;;
19543;SDS011;9917;51.256;7.152;2022-09-03T12:09:10;5.78;;;0.90;;
19543;SDS011;9917;51.256;7.152;2022-09-03T12:12:01;3.53;;;1.50;;
19543;SDS011;9917;51.256;7.152;2022-09-03T12:14:39;2.05;;;1.08;;
19543;SDS011;9917;51.256;7.152;2022-09-03T12:17:15;2.95;;;1.00;;
19543;SDS011;9917;51.256;7.152;2022-09-03T12:19:49;2.75;;;1.00;;
19543;SDS011;9917;51.256;7.152;2022-09-03T12:22:18;1.70;;;1.10;;
19543;SDS011;9917;51.256;7.152;2022-09-03T12:24:46;2.95;;;1.40;;
19543;SDS011;9917;51.256;7.152;2022-09-03T12:27:14;2.17;;;0.82;;
19543;SDS011;9917;51.256;7.152;2022-09-03T12:29:50;2.80;;;1.02;;
19543;SDS011;9917;51.256;7.152;2022-09-03T12:32:17;4.40;;;1.40;;
19543;SDS011;9917;51.256;7.152;2022-09-03T12:34:43;2.83;;;1.00;;
19543;SDS011;9917;51.256;7.152;2022-09-03T12:37:16;2.10;;;1.10;;
19543;SDS011;9917;51.256;7.152;2022-09-03T12:39:49;2.70;;;1.33;;
19543;SDS011;9917;51.256;7.152;2022-09-03T12:42:17;2.00;;;1.05;;
19543;SDS011;9917;51.256;7.152;2022-09-03T12:44:46;2.17;;;0.77;;
19543;SDS011;9917;51.256;7.152;2022-09-03T12:47:14;2.13;;;0.88;;
19543;SDS011;9917;51.256;7.152;2022-09-03T12:49:43;2.15;;;0.75;;
19543;SDS011;9917;51.256;7.152;2022-09-03T12:52:12;1.50;;;0.82;;
19543;SDS011;9917;51.256;7.152;2022-09-03T12:54:45;1.23;;;0.88;;
19543;SDS011;9917;51.256;7.152;2022-09-03T12:57:16;3.15;;;1.27;;
19543;SDS011;9917;51.256;7.152;2022-09-03T12:59:46;7.38;;;1.30;;
19543;SDS011;9917;51.256;7.152;2022-09-03T13:02:17;1.27;;;0.80;;
19543;SDS011;9917;51.256;7.152;2022-09-03T13:04:46;2.33;;;1.20;;
19543;SDS011;9917;51.256;7.152;2022-09-03T13:07:13;3.88;;;1.10;;
19543;SDS011;9917;51.256;7.152;2022-09-03T13:09:46;1.95;;;1.10;;
19543;SDS011;9917;51.256;7.152;2022-09-03T13:12:20;2.88;;;1.00;;
19543;SDS011;9917;51.256;7.152;2022-09-03T13:14:47;1.67;;;1.27;;
19543;SDS011;9917;51.256;7.152;2022-09-03T13:17:21;1.77;;;1.13;;
19543;SDS011;9917;51.256;7.152;2022-09-03T13:20:11;3.00;;;1.05;;
19543;SDS011;9917;51.256;7.152;2022-09-03T13:22:49;2.17;;;1.00;;
19543;SDS011;9917;51.256;7.152;2022-09-03T13:25:26;2.70;;;1.33;;
19543;SDS011;9917;51.256;7.152;2022-09-03T13:27:58;2.35;;;1.58;;
19543;SDS011;9917;51.256;7.152;2022-09-03T13:30:37;1.73;;;1.13;;
19543;SDS011;9917;51.256;7.152;2022-09-03T13:33:14;4.18;;;1.10;;
19543;SDS011;9917;51.256;7.152;2022-09-03T13:35:46;2.15;;;1.00;;
19543;SDS011;9917;51.256;7.152;2022-09-03T13:38:18;2.40;;;1.10;;
19543;SDS011;9917;51.256;7.152;2022-09-03T13:40:51;2.58;;;1.10;;
19543;SDS011;9917;51.256;7.152;2022-09-03T13:43:23;1.35;;;1.08;;
19543;SDS011;9917;51.256;7.152;2022-09-03T13:45:55;4.60;;;1.27;;
19543;SDS011;9917;51.256;7.152;2022-09-03T13:48:27;3.17;;;1.35;;
19543;SDS011;9917;51.256;7.152;2022-09-03T13:51:00;3.05;;;1.48;;
19543;SDS011;9917;51.256;7.152;2022-09-03T13:53:35;3.25;;;1.70;;
19543;SDS011;9917;51.256;7.152;2022-09-03T13:56:06;6.10;;;3.22;;
19543;SDS011;9917;51.256;7.152;2022-09-03T13:58:43;5.70;;;3.25;;
19543;SDS011;9917;51.256;7.152;2022-09-03T14:01:14;4.75;;;2.65;;
19543;SDS011;9917;51.256;7.152;2022-09-03T14:03:49;5.50;;;2.55;;
19543;SDS011;9917;51.256;7.152;2022-09-03T14:06:22;4.93;;;3.20;;
19543;SDS011;9917;51.256;7.152;2022-09-03T14:08:59;5.13;;;2.53;;
19543;SDS011;9917;51.256;7.152;2022-09-03T14:11:31;5.60;;;2.47;;
19543;SDS011;9917;51.256;7.152;2022-09-03T14:14:11;3.97;;;1.23;;
19543;SDS011;9917;51.256;7.152;2022-09-03T14:16:42;2.15;;;1.20;;
19543;SDS011;9917;51.256;7.152;2022-09-03T14:19:15;2.00;;;1.23;;
19543;SDS011;9917;51.256;7.152;2022-09-03T14:21:46;1.65;;;1.10;;
19543;SDS011;9917;51.256;7.152;2022-09-03T14:24:19;1.60;;;1.17;;
19543;SDS011;9917;51.256;7.152;2022-09-03T14:26:49;3.35;;;1.45;;
19543;SDS011;9917;51.256;7.152;2022-09-03T14:29:16;3.63;;;2.30;;
19543;SDS011;9917;51.256;7.152;2022-09-03T14:34:46;3.50;;;1.70;;
19543;SDS011;9917;51.256;7.152;2022-09-03T14:37:37;4.32;;;1.83;;
19543;SDS011;9917;51.256;7.152;2022-09-03T14:40:17;5.00;;;2.13;;
19543;SDS011;9917;51.256;7.152;2022-09-03T14:42:52;2.95;;;1.50;;
19543;SDS011;9917;51.256;7.152;2022-09-03T14:45:38;2.97;;;1.35;;
19543;SDS011;9917;51.256;7.152;2022-09-03T14:48:26;2.42;;;1.63;;
19543;SDS011;9917;51.256;7.152;2022-09-03T14:51:17;3.67;;;1.95;;
19543;SDS011;9917;51.256;7.152;2022-09-03T14:53:55;3.78;;;1.70;;
19543;SDS011;9917;51.256;7.152;2022-09-03T14:56:48;2.88;;;1.40;;
19543;SDS011;9917;51.256;7.152;2022-09-03T15:02:16;1.77;;;0.90;;
19543;SDS011;9917;51.256;7.152;2022-09-03T15:05:10;2.92;;;1.10;;
19543;SDS011;9917;51.256;7.152;2022-09-03T15:07:44;4.90;;;1.77;;
19543;SDS011;9917;51.256;7.152;2022-09-03T15:10:20;3.65;;;1.25;;
19543;SDS011;9917;51.256;7.152;2022-09-03T15:12:56;2.88;;;1.30;;
19543;SDS011;9917;51.256;7.152;2022-09-03T15:15:28;3.92;;;1.92;;
19543;SDS011;9917;51.256;7.152;2022-09-03T15:18:02;4.22;;;1.65;;
19543;SDS011;9917;51.256;7.152;2022-09-03T15:20:43;4.85;;;1.42;;
19543;SDS011;9917;51.256;7.152;2022-09-03T15:23:24;3.33;;;1.33;;
19543;SDS011;9917;51.256;7.152;2022-09-03T15:29:14;2.28;;;1.25;;
19543;SDS011;9917;51.256;7.152;2022-09-03T15:31:49;2.83;;;1.52;;
19543;SDS011;9917;51.256;7.152;2022-09-03T15:34:30;2.05;;;1.10;;
19543;SDS011;9917;51.256;7.152;2022-09-03T15:37:07;3.38;;;1.75;;